createdAt,value
2023-05-21T00:00:54.921Z,12.84
2023-05-21T00:01:55.043Z,12.82
2023-05-21T00:02:55.321Z,12.85
2023-05-21T00:03:56.856Z,12.79
2023-05-21T00:04:55.652Z,12.74
2023-05-21T00:05:55.805Z,12.88
2023-05-21T00:06:57.809Z,12.78
2023-05-21T00:07:56.208Z,12.71
2023-05-21T00:08:56.393Z,12.78
2023-05-21T00:09:56.564Z,12.62
2023-05-21T00:10:56.754Z,12.60
2023-05-21T00:11:56.902Z,12.48
2023-05-21T00:12:57.038Z,12.54
2023-05-21T00:13:58.141Z,12.59
2023-05-21T00:14:57.419Z,12.48
2023-05-21T00:15:58.405Z,12.57
2023-05-21T00:16:57.726Z,12.51
2023-05-21T00:17:57.894Z,12.57
2023-05-21T00:18:58.213Z,12.60
2023-05-21T00:19:58.785Z,12.57
2023-05-21T00:20:59.281Z,12.56
2023-05-21T00:21:59.281Z,12.69
2023-05-21T00:22:58.667Z,12.70
2023-05-21T00:23:58.825Z,12.60
2023-05-21T00:24:58.957Z,12.67
2023-05-21T00:25:59.122Z,12.70
2023-05-21T00:26:59.818Z,12.63
2023-05-21T00:27:59.455Z,12.70
2023-05-21T00:29:00.325Z,12.67
2023-05-21T00:30:00.829Z,12.77
2023-05-21T00:30:59.974Z,12.75
2023-05-21T00:32:00.265Z,12.67
2023-05-21T00:33:00.349Z,12.69
2023-05-21T00:34:00.488Z,12.81
2023-05-21T00:35:01.166Z,12.70
2023-05-21T00:36:01.787Z,12.77
2023-05-21T00:37:01.331Z,12.75
2023-05-21T00:38:01.040Z,12.69
2023-05-21T00:39:01.779Z,12.64
2023-05-21T00:40:01.384Z,12.52
2023-05-21T00:41:02.286Z,12.46
2023-05-21T00:42:01.686Z,12.46
2023-05-21T00:43:01.824Z,12.49
2023-05-21T00:44:01.947Z,12.51
2023-05-21T00:45:02.346Z,12.62
2023-05-21T00:46:02.342Z,12.51
2023-05-21T00:47:02.422Z,12.63
2023-05-21T00:48:03.308Z,12.56
2023-05-21T00:49:02.718Z,12.49
2023-05-21T00:50:02.884Z,12.48
2023-05-21T00:51:03.069Z,12.54
2023-05-21T00:52:03.821Z,12.45
2023-05-21T00:53:03.478Z,12.46
2023-05-21T00:54:04.284Z,12.51
2023-05-21T00:55:03.836Z,12.49
2023-05-21T00:56:04.013Z,12.44
2023-05-21T00:57:04.179Z,12.56
2023-05-21T00:58:04.333Z,12.44
2023-05-21T00:59:04.493Z,12.42
2023-05-21T01:00:04.664Z,12.44
2023-05-21T01:01:04.892Z,12.34
2023-05-21T01:02:06.837Z,12.41
2023-05-21T01:03:05.324Z,12.38
2023-05-21T01:04:05.508Z,12.46
2023-05-21T01:05:05.717Z,12.34
2023-05-21T01:06:05.903Z,12.34
2023-05-21T01:07:06.076Z,12.21
2023-05-21T01:08:07.149Z,12.23
2023-05-21T01:09:07.371Z,12.21
2023-05-21T01:10:06.605Z,12.27
2023-05-21T01:11:07.806Z,12.21
2023-05-21T01:12:06.970Z,12.16
2023-05-21T01:13:07.351Z,12.12
2023-05-21T01:14:08.306Z,12.15
2023-05-21T01:15:07.617Z,12.05
2023-05-21T01:16:07.777Z,11.94
2023-05-21T01:17:07.990Z,11.96
2023-05-21T01:18:08.133Z,11.93
2023-05-21T01:19:08.400Z,11.89
2023-05-21T01:20:09.337Z,11.90
2023-05-21T01:21:08.700Z,11.94
2023-05-21T01:22:08.878Z,11.78
2023-05-21T01:23:09.092Z,11.77
2023-05-21T01:24:09.293Z,11.80
2023-05-21T01:25:09.484Z,11.75
2023-05-21T01:26:10.292Z,11.93
2023-05-21T01:27:09.815Z,11.89
2023-05-21T01:28:11.288Z,11.90
2023-05-21T01:29:10.170Z,11.94
2023-05-21T01:30:10.331Z,11.97
2023-05-21T01:31:11.298Z,11.97
2023-05-21T01:32:10.673Z,11.97
2023-05-21T01:33:11.843Z,12.06
2023-05-21T01:34:11.113Z,12.06
2023-05-21T01:35:11.802Z,12.12
2023-05-21T01:36:12.334Z,12.06
2023-05-21T01:37:12.304Z,12.04
2023-05-21T01:38:11.739Z,12.02
2023-05-21T01:39:12.361Z,12.01
2023-05-21T01:40:12.039Z,12.06
2023-05-21T01:41:12.222Z,12.13
2023-05-21T01:42:12.435Z,12.13
2023-05-21T01:43:12.670Z,12.08
2023-05-21T01:44:12.859Z,12.05
2023-05-21T01:45:13.838Z,11.97
2023-05-21T01:46:13.288Z,12.01
2023-05-21T01:47:14.295Z,12.01
2023-05-21T01:48:14.299Z,11.86
2023-05-21T01:49:13.703Z,11.94
2023-05-21T01:50:14.805Z,11.82
2023-05-21T01:51:14.051Z,11.97
2023-05-21T01:52:14.829Z,11.90
2023-05-21T01:53:14.326Z,11.78
2023-05-21T01:54:15.297Z,11.80
2023-05-21T01:55:14.703Z,11.82
2023-05-21T01:56:14.863Z,11.83
2023-05-21T01:57:15.047Z,11.85
2023-05-21T01:58:15.202Z,11.77
2023-05-21T01:59:15.360Z,11.71
2023-05-21T02:00:15.487Z,11.68
2023-05-21T02:01:15.644Z,11.70
2023-05-21T02:02:15.978Z,11.75
2023-05-21T02:03:16.219Z,11.72
2023-05-21T02:04:16.212Z,11.74
2023-05-21T02:05:16.396Z,11.67
2023-05-21T02:06:16.600Z,11.74
2023-05-21T02:07:17.308Z,11.61
2023-05-21T02:08:17.804Z,11.61
2023-05-21T02:09:17.845Z,11.56
2023-05-21T02:10:17.810Z,11.68
2023-05-21T02:11:17.860Z,11.62
2023-05-21T02:12:18.306Z,11.67
2023-05-21T02:13:17.865Z,11.62
2023-05-21T02:14:18.848Z,11.59
2023-05-21T02:15:18.301Z,11.61
2023-05-21T02:16:18.395Z,11.62
2023-05-21T02:17:18.602Z,11.64
2023-05-21T02:18:19.324Z,11.64
2023-05-21T02:19:19.387Z,11.57
2023-05-21T02:20:19.240Z,11.53
2023-05-21T02:21:19.403Z,11.53
2023-05-21T02:22:20.359Z,11.61
2023-05-21T02:23:19.719Z,11.56
2023-05-21T02:24:19.868Z,11.47
2023-05-21T02:25:20.362Z,11.49
2023-05-21T02:26:20.814Z,11.43
2023-05-21T02:27:21.312Z,11.52
2023-05-21T02:28:20.665Z,11.47
2023-05-21T02:29:20.811Z,11.53
2023-05-21T02:30:21.862Z,11.52
2023-05-21T02:31:21.248Z,11.54
2023-05-21T02:32:21.519Z,11.44
2023-05-21T02:33:21.597Z,11.35
2023-05-21T02:34:21.839Z,11.46
2023-05-21T02:35:22.024Z,11.38
2023-05-21T02:36:22.821Z,11.34
2023-05-21T02:37:22.375Z,11.34
2023-05-21T02:38:22.558Z,11.39
2023-05-21T02:39:22.684Z,11.31
2023-05-21T02:40:22.855Z,11.32
2023-05-21T02:41:23.822Z,11.35
2023-05-21T02:42:23.857Z,11.31
2023-05-21T02:43:23.403Z,11.32
2023-05-21T02:44:24.829Z,11.28
2023-05-21T02:45:25.318Z,11.21
2023-05-21T02:46:25.909Z,11.27
2023-05-21T02:47:24.201Z,11.34
2023-05-21T02:48:24.316Z,11.21
2023-05-21T02:49:25.325Z,11.35
2023-05-21T02:50:24.714Z,11.32
2023-05-21T02:51:24.864Z,11.31
2023-05-21T02:52:25.057Z,11.29
2023-05-21T02:53:25.230Z,11.21
2023-05-21T02:54:26.419Z,11.31
2023-05-21T02:55:25.553Z,11.31
2023-05-21T02:56:26.361Z,11.27
2023-05-21T02:57:25.905Z,11.19
2023-05-21T02:58:26.100Z,11.20
2023-05-21T02:59:26.257Z,11.27
2023-05-21T03:00:26.444Z,11.21
2023-05-21T03:01:28.373Z,11.24
2023-05-21T03:02:26.934Z,11.20
2023-05-21T03:03:27.066Z,11.20
2023-05-21T03:04:27.818Z,11.20
2023-05-21T03:05:27.369Z,11.24
2023-05-21T03:06:27.547Z,11.16
2023-05-21T03:07:27.740Z,11.17
2023-05-21T03:08:27.938Z,11.16
2023-05-21T03:09:28.118Z,11.07
2023-05-21T03:10:28.309Z,11.10
2023-05-21T03:11:28.512Z,11.09
2023-05-21T03:12:28.696Z,11.02
2023-05-21T03:13:28.901Z,11.01
2023-05-21T03:14:29.089Z,11.06
2023-05-21T03:15:29.260Z,11.01
2023-05-21T03:16:29.483Z,11.07
2023-05-21T03:17:30.419Z,11.10
2023-05-21T03:18:30.332Z,11.07
2023-05-21T03:19:29.957Z,11.10
2023-05-21T03:20:30.018Z,11.09
2023-05-21T03:21:30.219Z,11.10
2023-05-21T03:22:30.397Z,11.11
2023-05-21T03:23:30.567Z,11.09
2023-05-21T03:24:32.829Z,11.11
2023-05-21T03:25:30.961Z,11.07
2023-05-21T03:26:31.138Z,11.11
2023-05-21T03:27:33.188Z,11.10
2023-05-21T03:28:32.329Z,11.11
2023-05-21T03:29:31.742Z,11.07
2023-05-21T03:30:31.895Z,11.13
2023-05-21T03:31:32.111Z,11.11
2023-05-21T03:32:33.388Z,11.03
2023-05-21T03:33:32.411Z,11.07
2023-05-21T03:34:32.592Z,11.07
2023-05-21T03:35:34.508Z,11.02
2023-05-21T03:36:32.994Z,10.96
2023-05-21T03:37:34.833Z,11.01
2023-05-21T03:38:34.860Z,10.94
2023-05-21T03:39:33.551Z,10.88
2023-05-21T03:40:33.712Z,10.88
2023-05-21T03:41:33.911Z,10.88
2023-05-21T03:42:34.881Z,10.91
2023-05-21T03:43:34.253Z,10.95
2023-05-21T03:44:35.372Z,10.89
2023-05-21T03:45:34.637Z,10.92
2023-05-21T03:46:34.834Z,10.91
2023-05-21T03:47:35.040Z,10.86
2023-05-21T03:48:35.214Z,10.95
2023-05-21T03:49:36.832Z,10.86
2023-05-21T03:50:35.591Z,10.86
2023-05-21T03:51:35.785Z,10.91
2023-05-21T03:52:36.831Z,10.95
2023-05-21T03:53:36.090Z,10.91
2023-05-21T03:54:36.244Z,10.94
2023-05-21T03:55:38.429Z,10.92
2023-05-21T03:56:37.835Z,10.91
2023-05-21T03:57:36.837Z,10.99
2023-05-21T03:58:37.046Z,10.95
2023-05-21T03:59:37.829Z,10.99
2023-05-21T04:00:38.836Z,11.09
2023-05-21T04:01:38.334Z,11.10
2023-05-21T04:02:37.774Z,11.20
2023-05-21T04:03:40.589Z,11.10
2023-05-21T04:04:39.861Z,11.17
2023-05-21T04:05:38.295Z,11.07
2023-05-21T04:06:39.204Z,11.11
2023-05-21T04:07:38.579Z,11.09
2023-05-21T04:08:39.376Z,10.99
2023-05-21T04:09:39.702Z,11.02
2023-05-21T04:10:39.851Z,11.11
2023-05-21T04:11:39.277Z,10.98
2023-05-21T04:12:40.205Z,11.02
2023-05-21T04:13:39.647Z,11.07
2023-05-21T04:14:39.853Z,11.03
2023-05-21T04:15:40.182Z,11.17
2023-05-21T04:16:40.273Z,11.17
2023-05-21T04:17:40.453Z,11.14
2023-05-21T04:18:44.138Z,11.19
2023-05-21T04:19:40.812Z,11.19
2023-05-21T04:20:40.996Z,11.27
2023-05-21T04:21:42.860Z,11.32
2023-05-21T04:22:41.365Z,11.38
2023-05-21T04:23:41.540Z,11.34
2023-05-21T04:24:41.708Z,11.39
2023-05-21T04:25:43.346Z,11.46
2023-05-21T04:26:42.124Z,11.43
2023-05-21T04:27:42.284Z,11.52
2023-05-21T04:28:42.453Z,11.49
2023-05-21T04:29:42.653Z,11.41
2023-05-21T04:30:42.788Z,11.44
2023-05-21T04:31:43.907Z,11.36
2023-05-21T04:32:43.147Z,11.47
2023-05-21T04:33:43.308Z,11.36
2023-05-21T04:34:44.343Z,11.32
2023-05-21T04:35:43.594Z,11.41
2023-05-21T04:36:44.344Z,11.46
2023-05-21T04:37:43.919Z,11.38
2023-05-21T04:38:44.844Z,11.46
2023-05-21T04:39:44.206Z,11.39
2023-05-21T04:40:44.338Z,11.43
2023-05-21T04:41:44.494Z,11.46
2023-05-21T04:42:44.635Z,11.50
2023-05-21T04:43:44.784Z,11.47
2023-05-21T04:44:44.907Z,11.59
2023-05-21T04:45:45.887Z,11.57
2023-05-21T04:46:45.300Z,11.59
2023-05-21T04:47:45.493Z,11.64
2023-05-21T04:48:45.658Z,11.67
2023-05-21T04:49:45.815Z,11.64
2023-05-21T04:50:45.933Z,11.59
2023-05-21T04:51:46.093Z,11.61
2023-05-21T04:52:46.862Z,11.71
2023-05-21T04:53:46.375Z,11.65
2023-05-21T04:54:47.933Z,11.65
2023-05-21T04:55:46.708Z,11.82
2023-05-21T04:56:46.864Z,11.82
2023-05-21T04:57:47.043Z,11.75
2023-05-21T04:58:47.912Z,11.89
2023-05-21T04:59:47.347Z,11.90
2023-05-21T05:00:49.430Z,11.82
2023-05-21T05:01:48.216Z,11.72
2023-05-21T05:02:47.958Z,11.82
2023-05-21T05:03:48.100Z,11.86
2023-05-21T05:04:48.893Z,11.75
2023-05-21T05:05:48.418Z,11.94
2023-05-21T05:06:48.622Z,11.74
2023-05-21T05:07:48.808Z,11.80
2023-05-21T05:08:49.018Z,11.89
2023-05-21T05:09:49.190Z,11.96
2023-05-21T05:10:49.332Z,11.87
2023-05-21T05:11:50.355Z,11.82
2023-05-21T05:12:50.359Z,11.75
2023-05-21T05:13:49.870Z,11.82
2023-05-21T05:14:50.058Z,11.71
2023-05-21T05:15:51.485Z,11.75
2023-05-21T05:16:51.562Z,11.82
2023-05-21T05:17:50.686Z,11.74
2023-05-21T05:18:50.941Z,11.77
2023-05-21T05:19:51.028Z,11.85
2023-05-21T05:20:51.858Z,12.02
2023-05-21T05:21:52.367Z,11.94
2023-05-21T05:22:51.500Z,12.02
2023-05-21T05:23:52.407Z,12.06
2023-05-21T05:24:52.404Z,12.12
2023-05-21T05:25:51.945Z,12.09
2023-05-21T05:26:52.096Z,12.11
2023-05-21T05:27:52.266Z,12.15
2023-05-21T05:28:52.471Z,12.13
2023-05-21T05:29:53.367Z,12.19
2023-05-21T05:30:53.453Z,12.16
2023-05-21T05:31:52.924Z,12.12
2023-05-21T05:32:53.918Z,12.12
2023-05-21T05:33:53.210Z,12.06
2023-05-21T05:34:54.007Z,12.13
2023-05-21T05:35:54.565Z,12.04
2023-05-21T05:36:53.703Z,11.94
2023-05-21T05:37:53.900Z,11.93
2023-05-21T05:38:54.899Z,12.01
2023-05-21T05:39:54.295Z,11.89
2023-05-21T05:40:54.485Z,11.96
2023-05-21T05:41:54.686Z,11.90
2023-05-21T05:42:54.866Z,12.06
2023-05-21T05:43:55.031Z,12.01
2023-05-21T05:44:55.189Z,12.01
2023-05-21T05:45:55.883Z,12.04
2023-05-21T05:46:56.361Z,12.02
2023-05-21T05:47:56.460Z,11.99
2023-05-21T05:48:55.903Z,12.06
2023-05-21T05:49:56.099Z,12.06
2023-05-21T05:50:56.266Z,12.06
2023-05-21T05:51:56.550Z,12.01
2023-05-21T05:52:56.616Z,12.01
2023-05-21T05:53:56.800Z,12.12
2023-05-21T05:54:56.945Z,12.05
2023-05-21T05:55:58.862Z,11.97
2023-05-21T05:56:57.880Z,12.02
2023-05-21T05:57:57.420Z,12.01
2023-05-21T05:58:58.234Z,11.97
2023-05-21T05:59:59.237Z,11.97
2023-05-21T06:00:58.406Z,12.02
2023-05-21T06:01:58.065Z,12.06
2023-05-21T06:02:58.306Z,12.12
2023-05-21T06:03:59.872Z,12.08
2023-05-21T06:04:58.647Z,12.08
2023-05-21T06:05:58.933Z,12.06
2023-05-21T06:06:59.036Z,12.09
2023-05-21T06:07:59.199Z,12.13
2023-05-21T06:08:59.930Z,12.06
2023-05-21T06:09:59.926Z,12.04
2023-05-21T06:10:59.751Z,12.02
2023-05-21T06:12:00.871Z,12.09
2023-05-21T06:13:00.154Z,11.96
2023-05-21T06:14:00.388Z,12.04
2023-05-21T06:15:00.511Z,12.02
2023-05-21T06:16:01.892Z,12.09
2023-05-21T06:17:00.918Z,12.13
2023-05-21T06:18:01.109Z,12.05
2023-05-21T06:19:01.397Z,12.05
2023-05-21T06:20:02.433Z,12.16
2023-05-21T06:21:02.376Z,12.15
2023-05-21T06:22:01.802Z,12.04
2023-05-21T06:23:01.969Z,12.21
2023-05-21T06:24:02.133Z,12.15
2023-05-21T06:25:02.917Z,12.29
2023-05-21T06:26:02.468Z,12.15
2023-05-21T06:27:02.655Z,12.20
2023-05-21T06:28:02.820Z,12.24
2023-05-21T06:29:04.014Z,12.11
2023-05-21T06:30:03.918Z,12.23
2023-05-21T06:31:03.923Z,12.23
2023-05-21T06:32:03.592Z,12.19
2023-05-21T06:33:04.424Z,12.24
2023-05-21T06:34:04.135Z,12.23
2023-05-21T06:35:04.920Z,12.30
2023-05-21T06:36:04.918Z,12.33
2023-05-21T06:37:04.458Z,12.41
2023-05-21T06:38:05.243Z,12.37
2023-05-21T06:39:05.416Z,12.33
2023-05-21T06:40:05.997Z,12.34
2023-05-21T06:41:05.123Z,12.21
2023-05-21T06:42:05.267Z,12.24
2023-05-21T06:43:05.499Z,12.37
2023-05-21T06:44:06.382Z,12.38
2023-05-21T06:45:05.770Z,12.39
2023-05-21T06:46:05.967Z,12.46
2023-05-21T06:47:06.140Z,12.44
2023-05-21T06:48:06.930Z,12.45
2023-05-21T06:49:06.478Z,12.44
2023-05-21T06:50:06.688Z,12.46
2023-05-21T06:51:06.799Z,12.51
2023-05-21T06:52:06.939Z,12.42
2023-05-21T06:53:07.921Z,12.52
2023-05-21T06:54:07.928Z,12.51
2023-05-21T06:55:07.459Z,12.52
2023-05-21T06:56:07.590Z,12.57
2023-05-21T06:57:07.732Z,12.56
2023-05-21T06:58:07.869Z,12.69
2023-05-21T06:59:08.021Z,12.63
2023-05-21T07:00:08.185Z,12.67
2023-05-21T07:01:08.373Z,12.66
2023-05-21T07:02:09.454Z,12.67
2023-05-21T07:03:08.860Z,12.64
2023-05-21T07:04:08.940Z,12.70
2023-05-21T07:05:09.086Z,12.63
2023-05-21T07:06:09.899Z,12.69
2023-05-21T07:07:09.413Z,12.67
2023-05-21T07:08:12.283Z,12.78
2023-05-21T07:09:10.746Z,12.75
2023-05-21T07:10:09.892Z,12.70
2023-05-21T07:11:10.938Z,12.70
2023-05-21T07:12:10.201Z,12.69
2023-05-21T07:13:10.353Z,12.74
2023-05-21T07:14:11.442Z,12.69
2023-05-21T07:15:10.733Z,12.71
2023-05-21T07:16:11.942Z,12.79
2023-05-21T07:17:11.157Z,12.74
2023-05-21T07:18:12.016Z,12.77
2023-05-21T07:19:11.512Z,12.66
2023-05-21T07:20:12.450Z,12.82
2023-05-21T07:21:11.850Z,12.82
2023-05-21T07:22:12.009Z,12.85
2023-05-21T07:23:12.890Z,12.82
2023-05-21T07:24:12.380Z,12.82
2023-05-21T07:25:12.506Z,12.85
2023-05-21T07:26:13.335Z,12.89
2023-05-21T07:27:24.872Z,13.03
2023-05-21T07:28:14.963Z,13.06
2023-05-21T07:29:13.087Z,13.20
2023-05-21T07:30:14.899Z,13.32
2023-05-21T07:31:46.835Z,13.32
2023-05-21T07:32:13.567Z,13.30
2023-05-21T07:33:13.735Z,13.36
2023-05-21T07:34:13.886Z,13.21
2023-05-21T07:35:14.040Z,13.25
2023-05-21T07:36:15.420Z,13.18
2023-05-21T07:37:14.320Z,13.21
2023-05-21T07:38:15.416Z,13.24
2023-05-21T07:39:14.644Z,13.22
2023-05-21T07:40:15.470Z,13.36
2023-05-21T07:41:17.822Z,13.37
2023-05-21T07:42:15.920Z,13.44
2023-05-21T07:43:15.408Z,13.55
2023-05-21T07:44:15.569Z,13.63
2023-05-21T07:45:15.719Z,13.79
2023-05-21T07:46:15.892Z,13.79
2023-05-21T07:47:16.921Z,13.70
2023-05-21T07:48:16.283Z,13.58
2023-05-21T07:49:17.130Z,13.63
2023-05-21T07:50:16.615Z,13.73
2023-05-21T07:51:16.785Z,13.87
2023-05-21T07:52:16.945Z,13.70
2023-05-21T07:53:17.104Z,13.70
2023-05-21T07:54:17.928Z,13.77
2023-05-21T07:55:17.423Z,13.91
2023-05-21T07:56:19.289Z,14.06
2023-05-21T07:57:17.780Z,13.99
2023-05-21T07:58:17.941Z,13.99
2023-05-21T07:59:18.094Z,13.91
2023-05-21T08:00:18.283Z,13.98
2023-05-21T08:01:19.439Z,13.89
2023-05-21T08:02:18.694Z,13.91
2023-05-21T08:03:19.484Z,13.89
2023-05-21T08:04:19.259Z,13.91
2023-05-21T08:05:19.130Z,13.99
2023-05-21T08:06:20.318Z,14.06
2023-05-21T08:07:19.477Z,14.17
2023-05-21T08:08:19.637Z,14.21
2023-05-21T08:09:19.857Z,14.14
2023-05-21T08:10:20.005Z,14.09
2023-05-21T08:11:20.163Z,14.19
2023-05-21T08:12:20.346Z,14.17
2023-05-21T08:13:21.441Z,14.09
2023-05-21T08:14:20.689Z,14.14
2023-05-21T08:15:20.850Z,14.29
2023-05-21T08:16:21.066Z,14.31
2023-05-21T08:17:21.948Z,14.39
2023-05-21T08:18:21.939Z,14.37
2023-05-21T08:19:21.549Z,14.35
2023-05-21T08:20:21.708Z,14.35
2023-05-21T08:21:21.882Z,14.39
2023-05-21T08:22:22.938Z,14.47
2023-05-21T08:23:22.226Z,14.61
2023-05-21T08:24:22.426Z,14.72
2023-05-21T08:25:22.620Z,14.74
2023-05-21T08:26:22.799Z,14.94
2023-05-21T08:27:22.961Z,14.86
2023-05-21T08:28:23.161Z,14.83
2023-05-21T08:29:23.945Z,15.01
2023-05-21T08:30:23.465Z,15.12
2023-05-21T08:31:24.498Z,15.21
2023-05-21T08:32:23.808Z,15.20
2023-05-21T08:33:24.010Z,15.05
2023-05-21T08:34:24.173Z,15.03
2023-05-21T08:35:24.315Z,15.13
2023-05-21T08:36:24.482Z,15.21
2023-05-21T08:37:24.646Z,15.13
2023-05-21T08:38:24.795Z,15.17
2023-05-21T08:39:24.954Z,15.30
2023-05-21T08:40:25.115Z,15.52
2023-05-21T08:41:25.249Z,15.56
2023-05-21T08:42:35.657Z,15.63
2023-05-21T08:43:27.622Z,15.68
2023-05-21T08:44:25.831Z,15.74
2023-05-21T08:45:25.988Z,15.89
2023-05-21T08:46:26.153Z,16.12
2023-05-21T08:47:26.996Z,16.41
2023-05-21T08:48:27.948Z,16.56
2023-05-21T08:49:27.668Z,16.71
2023-05-21T08:50:27.446Z,16.80
2023-05-21T08:51:26.871Z,16.55
2023-05-21T08:52:27.812Z,16.49
2023-05-21T08:53:29.064Z,16.23
2023-05-21T08:54:28.364Z,16.30
2023-05-21T08:55:27.543Z,16.20
2023-05-21T08:56:27.749Z,16.26
2023-05-21T08:57:27.941Z,16.31
2023-05-21T08:58:28.100Z,16.23
2023-05-21T08:59:28.274Z,16.50
2023-05-21T09:00:28.502Z,16.71
2023-05-21T09:01:28.735Z,16.80
2023-05-21T09:02:28.917Z,16.74
2023-05-21T09:03:29.146Z,16.98
2023-05-21T09:04:29.151Z,17.17
2023-05-21T09:05:29.321Z,16.95
2023-05-21T09:06:29.515Z,16.83
2023-05-21T09:07:30.455Z,16.50
2023-05-21T09:08:29.895Z,16.60
2023-05-21T09:09:30.093Z,16.68
2023-05-21T09:10:30.277Z,16.71
2023-05-21T09:11:31.813Z,16.75
2023-05-21T09:12:30.686Z,16.81
2023-05-21T09:13:31.464Z,16.80
2023-05-21T09:14:31.993Z,16.85
2023-05-21T09:15:31.243Z,16.96
2023-05-21T09:16:31.479Z,16.95
2023-05-21T09:17:31.573Z,16.93
2023-05-21T09:18:32.490Z,17.03
2023-05-21T09:19:31.951Z,17.08
2023-05-21T09:20:32.960Z,17.32
2023-05-21T09:21:32.296Z,17.18
2023-05-21T09:22:32.486Z,17.15
2023-05-21T09:23:32.669Z,17.00
2023-05-21T09:24:35.779Z,16.89
2023-05-21T09:25:33.052Z,17.08
2023-05-21T09:26:33.256Z,17.14
2023-05-21T09:27:33.413Z,17.28
2023-05-21T09:28:33.599Z,17.41
2023-05-21T09:29:33.781Z,17.33
2023-05-21T09:30:36.152Z,17.28
2023-05-21T09:31:36.023Z,17.22
2023-05-21T09:32:34.321Z,17.25
2023-05-21T09:33:34.528Z,17.26
2023-05-21T09:34:35.499Z,17.22
2023-05-21T09:35:36.134Z,17.23
2023-05-21T09:36:35.101Z,17.25
2023-05-21T09:37:35.279Z,17.20
2023-05-21T09:38:35.517Z,17.10
2023-05-21T09:39:37.961Z,16.99
2023-05-21T09:40:36.055Z,16.90
2023-05-21T09:41:36.332Z,16.85
2023-05-21T09:42:36.189Z,16.71
2023-05-21T09:43:36.394Z,16.67
2023-05-21T09:44:38.502Z,16.52
2023-05-21T09:45:36.980Z,16.48
2023-05-21T09:46:37.972Z,16.62
2023-05-21T09:47:37.246Z,16.78
2023-05-21T09:48:37.341Z,16.83
2023-05-21T09:49:37.480Z,16.88
2023-05-21T09:50:37.894Z,16.86
2023-05-21T09:51:38.013Z,16.95
2023-05-21T09:52:40.139Z,16.93
2023-05-21T09:53:38.188Z,16.86
2023-05-21T09:54:38.391Z,16.80
2023-05-21T09:55:39.507Z,16.85
2023-05-21T09:56:38.797Z,16.73
2023-05-21T09:57:38.963Z,16.80
2023-05-21T09:58:39.146Z,16.73
2023-05-21T09:59:39.317Z,16.77
2023-05-21T10:00:40.022Z,16.77
2023-05-21T10:01:39.747Z,16.96
2023-05-21T10:02:39.974Z,16.75
2023-05-21T10:03:40.089Z,16.89
2023-05-21T10:04:40.320Z,16.83
2023-05-21T10:05:40.462Z,16.96
2023-05-21T10:06:42.485Z,16.88
2023-05-21T10:07:41.527Z,16.90
2023-05-21T10:08:41.972Z,16.86
2023-05-21T10:09:41.262Z,17.03
2023-05-21T10:10:41.457Z,16.95
2023-05-21T10:11:41.674Z,17.03
2023-05-21T10:12:41.857Z,17.06
2023-05-21T10:13:42.086Z,17.15
2023-05-21T10:14:42.263Z,17.06
2023-05-21T10:15:43.021Z,17.06
2023-05-21T10:16:43.506Z,17.10
2023-05-21T10:17:43.562Z,17.06
2023-05-21T10:18:43.059Z,17.25
2023-05-21T10:19:43.971Z,17.18
2023-05-21T10:20:43.352Z,17.26
2023-05-21T10:21:45.054Z,17.35
2023-05-21T10:22:43.728Z,17.29
2023-05-21T10:23:44.974Z,17.11
2023-05-21T10:24:44.972Z,16.98
2023-05-21T10:25:44.967Z,16.90
2023-05-21T10:26:44.621Z,16.93
2023-05-21T10:27:44.797Z,16.99
2023-05-21T10:28:44.972Z,17.11
2023-05-21T10:29:45.154Z,17.25
2023-05-21T10:30:45.331Z,17.22
2023-05-21T10:31:45.559Z,17.23
2023-05-21T10:32:45.868Z,17.32
2023-05-21T10:33:46.494Z,17.30
2023-05-21T10:34:46.172Z,17.30
2023-05-21T10:35:46.362Z,17.26
2023-05-21T10:36:46.550Z,17.23
2023-05-21T10:37:46.772Z,17.23
2023-05-21T10:38:46.960Z,17.35
2023-05-21T10:39:47.110Z,17.33
2023-05-21T10:40:47.309Z,17.43
2023-05-21T10:41:47.519Z,17.47
2023-05-21T10:42:49.480Z,17.41
2023-05-21T10:43:48.526Z,17.28
2023-05-21T10:44:48.062Z,17.35
2023-05-21T10:45:48.294Z,17.59
2023-05-21T10:46:48.360Z,17.59
2023-05-21T10:47:50.628Z,17.54
2023-05-21T10:48:48.703Z,17.63
2023-05-21T10:49:49.527Z,17.76
2023-05-21T10:50:49.061Z,17.79
2023-05-21T10:51:50.020Z,17.92
2023-05-21T10:52:50.050Z,18.06
2023-05-21T10:53:49.589Z,18.27
2023-05-21T10:54:49.789Z,18.37
2023-05-21T10:55:50.003Z,18.50
2023-05-21T10:56:50.260Z,18.57
2023-05-21T10:57:50.461Z,18.46
2023-05-21T10:58:52.490Z,18.31
2023-05-21T10:59:50.772Z,18.24
2023-05-21T11:00:51.061Z,18.21
2023-05-21T11:01:53.560Z,18.12
2023-05-21T11:02:51.373Z,18.15
2023-05-21T11:03:51.523Z,18.06
2023-05-21T11:04:52.610Z,18.02
2023-05-21T11:05:51.797Z,17.84
2023-05-21T11:06:51.977Z,17.94
2023-05-21T11:07:53.989Z,17.92
2023-05-21T11:08:55.098Z,17.99
2023-05-21T11:09:54.868Z,17.99
2023-05-21T11:10:52.746Z,17.97
2023-05-21T11:11:53.486Z,18.02
2023-05-21T11:12:53.128Z,18.06
2023-05-21T11:13:54.994Z,18.17
2023-05-21T11:14:53.493Z,18.24
2023-05-21T11:15:54.702Z,18.29
2023-05-21T11:16:53.847Z,18.34
2023-05-21T11:17:55.086Z,18.33
2023-05-21T11:18:54.301Z,18.24
2023-05-21T11:19:54.506Z,18.27
2023-05-21T11:20:55.362Z,18.39
2023-05-21T11:21:54.876Z,18.37
2023-05-21T11:22:55.040Z,18.52
2023-05-21T11:23:55.228Z,18.46
2023-05-21T11:24:55.456Z,18.65
2023-05-21T11:25:55.542Z,18.55
2023-05-21T11:26:56.495Z,18.49
2023-05-21T11:27:56.550Z,18.52
2023-05-21T11:28:56.099Z,18.47
2023-05-21T11:29:56.280Z,18.40
2023-05-21T11:30:56.456Z,18.37
2023-05-21T11:31:56.675Z,18.47
2023-05-21T11:32:56.912Z,18.50
2023-05-21T11:33:57.580Z,18.47
2023-05-21T11:34:58.001Z,18.50
2023-05-21T11:35:57.404Z,18.65
2023-05-21T11:36:57.614Z,18.77
2023-05-21T11:37:57.790Z,18.90
2023-05-21T11:38:57.936Z,18.99
2023-05-21T11:39:58.175Z,19.02
2023-05-21T11:40:58.350Z,19.15
2023-05-21T11:41:58.847Z,19.28
2023-05-21T11:42:58.729Z,19.28
2023-05-21T11:43:58.920Z,19.35
2023-05-21T11:44:59.096Z,19.28
2023-05-21T11:45:59.269Z,19.21
2023-05-21T11:46:59.504Z,18.99
2023-05-21T11:48:01.553Z,19.13
2023-05-21T11:49:01.022Z,19.17
2023-05-21T11:49:59.898Z,19.31
2023-05-21T11:51:00.556Z,19.46
2023-05-21T11:52:00.194Z,19.38
2023-05-21T11:53:01.026Z,19.42
2023-05-21T11:54:00.625Z,19.46
2023-05-21T11:55:00.804Z,19.53
2023-05-21T11:56:01.576Z,19.46
2023-05-21T11:57:02.054Z,19.50
2023-05-21T11:58:02.509Z,19.63
2023-05-21T11:59:02.525Z,19.50
2023-05-21T12:00:01.803Z,19.57
2023-05-21T12:01:01.809Z,19.65
2023-05-21T12:02:01.979Z,19.72
2023-05-21T12:03:02.284Z,19.57
2023-05-21T12:04:02.488Z,19.76
2023-05-21T12:05:02.501Z,19.86
2023-05-21T12:06:02.725Z,19.93
2023-05-21T12:07:02.910Z,19.83
2023-05-21T12:08:04.027Z,19.95
2023-05-21T12:09:03.303Z,20.21
2023-05-21T12:10:03.511Z,20.39
2023-05-21T12:11:04.572Z,20.35
2023-05-21T12:12:05.522Z,20.25
2023-05-21T12:13:04.033Z,20.25
2023-05-21T12:14:04.248Z,20.47
2023-05-21T12:15:04.465Z,20.47
2023-05-21T12:16:06.701Z,20.66
2023-05-21T12:17:05.792Z,20.72
2023-05-21T12:18:05.035Z,20.72
2023-05-21T12:19:06.111Z,20.64
2023-05-21T12:20:05.413Z,20.77
2023-05-21T12:21:06.111Z,20.61
2023-05-21T12:22:05.773Z,20.56
2023-05-21T12:23:06.521Z,20.59
2023-05-21T12:24:06.102Z,20.51
2023-05-21T12:25:07.034Z,20.43
2023-05-21T12:26:06.469Z,20.43
2023-05-21T12:27:06.640Z,20.33
2023-05-21T12:28:06.819Z,20.43
2023-05-21T12:29:06.986Z,20.46
2023-05-21T12:30:08.028Z,20.72
2023-05-21T12:31:07.309Z,20.77
2023-05-21T12:32:08.117Z,20.65
2023-05-21T12:33:08.675Z,20.81
2023-05-21T12:34:07.847Z,20.95
2023-05-21T12:35:08.112Z,20.98
2023-05-21T12:36:08.175Z,21.08
2023-05-21T12:37:08.350Z,21.13
2023-05-21T12:38:08.585Z,21.09
2023-05-21T12:39:10.611Z,21.05
2023-05-21T12:40:09.388Z,21.20
2023-05-21T12:41:10.107Z,21.06
2023-05-21T12:42:09.296Z,20.96
2023-05-21T12:43:09.578Z,20.90
2023-05-21T12:44:11.532Z,20.93
2023-05-21T12:45:09.813Z,20.93
2023-05-21T12:46:10.648Z,20.91
2023-05-21T12:47:10.125Z,20.95
2023-05-21T12:48:10.407Z,21.14
2023-05-21T12:49:10.499Z,21.06
2023-05-21T12:50:11.701Z,21.09
2023-05-21T12:51:10.924Z,21.11
2023-05-21T12:52:12.025Z,21.26
2023-05-21T12:53:11.402Z,21.17
2023-05-21T12:54:12.100Z,21.26
2023-05-21T12:55:13.558Z,21.06